sensor_id;sensor_type;location;lat;lon;timestamp;pressure;altitude;pressure_sealevel;temperature;humidity
5952;BME280;3001;42.622;23.194;2022-10-30T00:00:44;92084.66;;;11.84;74.62
5952;BME280;3001;42.622;23.194;2022-10-30T00:03:11;92091.69;;;11.84;73.64
5952;BME280;3001;42.622;23.194;2022-10-30T00:05:40;92078.75;;;11.79;73.83
5952;BME280;3001;42.622;23.194;2022-10-30T00:08:08;92091.25;;;11.95;73.50
5952;BME280;3001;42.622;23.194;2022-10-30T00:10:36;92085.81;;;11.92;74.15
5952;BME280;3001;42.622;23.194;2022-10-30T00:13:04;92079.53;;;11.66;75.24
5952;BME280;3001;42.622;23.194;2022-10-30T00:15:31;92077.91;;;11.83;75.17
5952;BME280;3001;42.622;23.194;2022-10-30T00:17:58;92086.75;;;11.69;75.84
5952;BME280;3001;42.622;23.194;2022-10-30T00:20:25;92083.84;;;11.70;75.42
5952;BME280;3001;42.622;23.194;2022-10-30T00:22:51;92083.47;;;11.63;77.06
5952;BME280;3001;42.622;23.194;2022-10-30T00:25:18;92085.09;;;11.59;77.47
5952;BME280;3001;42.622;23.194;2022-10-30T00:27:45;92079.34;;;11.89;77.23
5952;BME280;3001;42.622;23.194;2022-10-30T00:30:13;92084.66;;;11.84;77.95
5952;BME280;3001;42.622;23.194;2022-10-30T00:32:40;92088.91;;;11.80;77.08
5952;BME280;3001;42.622;23.194;2022-10-30T00:35:08;92082.72;;;11.76;76.02
5952;BME280;3001;42.622;23.194;2022-10-30T00:37:35;92068.06;;;11.67;75.97
5952;BME280;3001;42.622;23.194;2022-10-30T00:40:02;92072.97;;;11.68;75.14
5952;BME280;3001;42.622;23.194;2022-10-30T00:42:30;92073.75;;;11.69;75.16
5952;BME280;3001;42.622;23.194;2022-10-30T00:44:57;92068.53;;;11.69;75.34
5952;BME280;3001;42.622;23.194;2022-10-30T00:47:27;92067.88;;;11.90;75.78
5952;BME280;3001;42.622;23.194;2022-10-30T00:49:58;92058.41;;;11.81;77.23
5952;BME280;3001;42.622;23.194;2022-10-30T00:52:27;92062.97;;;11.89;77.79
5952;BME280;3001;42.622;23.194;2022-10-30T00:54:56;92047.53;;;11.79;78.56
5952;BME280;3001;42.622;23.194;2022-10-30T00:57:25;92054.09;;;11.90;78.36
5952;BME280;3001;42.622;23.194;2022-10-30T00:59:52;92054.09;;;11.76;78.67
5952;BME280;3001;42.622;23.194;2022-10-30T01:02:19;92053.31;;;11.76;78.91
5952;BME280;3001;42.622;23.194;2022-10-30T01:04:50;92054.28;;;11.93;78.34
5952;BME280;3001;42.622;23.194;2022-10-30T01:07:18;92050.81;;;11.98;77.73
5952;BME280;3001;42.622;23.194;2022-10-30T01:09:45;92049.16;;;11.88;78.63
5952;BME280;3001;42.622;23.194;2022-10-30T01:12:13;92042.53;;;11.82;80.25
5952;BME280;3001;42.622;23.194;2022-10-30T01:14:42;92043.22;;;11.88;80.05
5952;BME280;3001;42.622;23.194;2022-10-30T01:17:29;92036.25;;;12.10;79.73
5952;BME280;3001;42.622;23.194;2022-10-30T01:20:13;92037.22;;;11.74;79.92
5952;BME280;3001;42.622;23.194;2022-10-30T01:22:53;92028.06;;;11.76;80.46
5952;BME280;3001;42.622;23.194;2022-10-30T01:25:34;92025.53;;;11.71;81.03
5952;BME280;3001;42.622;23.194;2022-10-30T01:28:10;92021.88;;;11.59;82.42
5952;BME280;3001;42.622;23.194;2022-10-30T01:30:51;92020.44;;;11.66;82.48
5952;BME280;3001;42.622;23.194;2022-10-30T01:33:32;92016.69;;;11.86;82.11
5952;BME280;3001;42.622;23.194;2022-10-30T01:36:10;92010.72;;;11.72;82.81
5952;BME280;3001;42.622;23.194;2022-10-30T01:38:44;92001.94;;;11.95;83.79
5952;BME280;3001;42.622;23.194;2022-10-30T01:41:13;92010.97;;;11.84;84.47
5952;BME280;3001;42.622;23.194;2022-10-30T01:43:40;92011.88;;;11.93;84.73
5952;BME280;3001;42.622;23.194;2022-10-30T01:46:25;92012.34;;;11.81;85.64
5952;BME280;3001;42.622;23.194;2022-10-30T01:49:06;91999.34;;;11.68;85.75
5952;BME280;3001;42.622;23.194;2022-10-30T01:51:50;92008.47;;;11.79;86.14
5952;BME280;3001;42.622;23.194;2022-10-30T01:54:29;92009.53;;;11.78;86.73
5952;BME280;3001;42.622;23.194;2022-10-30T01:57:04;91996.53;;;11.78;86.99
5952;BME280;3001;42.622;23.194;2022-10-30T01:59:36;92004.72;;;12.11;85.51
5952;BME280;3001;42.622;23.194;2022-10-30T02:02:05;92005.94;;;12.14;86.29
5952;BME280;3001;42.622;23.194;2022-10-30T02:04:32;92003.94;;;12.11;86.75
5952;BME280;3001;42.622;23.194;2022-10-30T02:07:01;92002.47;;;12.18;86.59
5952;BME280;3001;42.622;23.194;2022-10-30T02:09:28;92003.06;;;12.15;86.96
5952;BME280;3001;42.622;23.194;2022-10-30T02:11:55;91992.00;;;11.97;87.63
5952;BME280;3001;42.622;23.194;2022-10-30T02:14:26;91990.53;;;12.04;88.09
5952;BME280;3001;42.622;23.194;2022-10-30T02:16:56;91994.09;;;12.08;87.97
5952;BME280;3001;42.622;23.194;2022-10-30T02:19:23;91990.91;;;12.11;88.40
5952;BME280;3001;42.622;23.194;2022-10-30T02:21:52;91993.41;;;12.02;88.67
5952;BME280;3001;42.622;23.194;2022-10-30T02:24:19;91989.94;;;12.07;89.55
5952;BME280;3001;42.622;23.194;2022-10-30T02:26:45;91989.19;;;11.93;91.03
5952;BME280;3001;42.622;23.194;2022-10-30T02:29:12;91991.28;;;12.04;91.56
5952;BME280;3001;42.622;23.194;2022-10-30T02:31:39;91990.88;;;12.24;91.61
5952;BME280;3001;42.622;23.194;2022-10-30T02:34:06;91989.13;;;12.33;90.89
5952;BME280;3001;42.622;23.194;2022-10-30T02:36:32;91992.34;;;12.30;91.21
5952;BME280;3001;42.622;23.194;2022-10-30T02:39:01;91984.47;;;12.44;91.19
5952;BME280;3001;42.622;23.194;2022-10-30T02:41:28;91991.19;;;12.23;91.86
5952;BME280;3001;42.622;23.194;2022-10-30T02:43:55;91979.81;;;12.19;91.59
5952;BME280;3001;42.622;23.194;2022-10-30T02:46:21;91986.81;;;12.32;91.16
5952;BME280;3001;42.622;23.194;2022-10-30T02:48:48;91983.44;;;12.31;91.29
5952;BME280;3001;42.622;23.194;2022-10-30T02:51:15;91980.38;;;12.29;90.13
5952;BME280;3001;42.622;23.194;2022-10-30T02:53:42;91985.94;;;12.36;90.24
5952;BME280;3001;42.622;23.194;2022-10-30T02:56:11;91989.50;;;12.40;89.63
5952;BME280;3001;42.622;23.194;2022-10-30T02:58:39;91986.84;;;12.18;91.05
5952;BME280;3001;42.622;23.194;2022-10-30T03:01:07;91983.56;;;12.26;90.55
5952;BME280;3001;42.622;23.194;2022-10-30T03:03:34;91988.03;;;12.12;91.15
5952;BME280;3001;42.622;23.194;2022-10-30T03:06:01;91993.25;;;12.48;89.52
5952;BME280;3001;42.622;23.194;2022-10-30T03:08:29;91996.25;;;12.41;89.63
5952;BME280;3001;42.622;23.194;2022-10-30T03:11:00;91993.56;;;12.46;89.31
5952;BME280;3001;42.622;23.194;2022-10-30T03:13:30;91996.47;;;12.31;90.38
5952;BME280;3001;42.622;23.194;2022-10-30T03:16:00;92002.75;;;12.30;90.89
5952;BME280;3001;42.622;23.194;2022-10-30T03:18:27;91999.63;;;12.42;90.14
5952;BME280;3001;42.622;23.194;2022-10-30T03:20:56;92011.81;;;12.68;88.78
5952;BME280;3001;42.622;23.194;2022-10-30T03:23:23;92001.19;;;12.65;89.22
5952;BME280;3001;42.622;23.194;2022-10-30T03:25:54;92007.78;;;12.62;89.07
5952;BME280;3001;42.622;23.194;2022-10-30T03:28:21;92001.16;;;12.78;89.37
5952;BME280;3001;42.622;23.194;2022-10-30T03:30:51;92008.31;;;12.37;91.18
5952;BME280;3001;42.622;23.194;2022-10-30T03:33:23;92012.41;;;12.16;93.45
5952;BME280;3001;42.622;23.194;2022-10-30T03:35:50;92008.25;;;12.29;92.57
5952;BME280;3001;42.622;23.194;2022-10-30T03:38:16;92012.78;;;12.23;93.72
5952;BME280;3001;42.622;23.194;2022-10-30T03:40:43;92014.13;;;12.34;92.77
5952;BME280;3001;42.622;23.194;2022-10-30T03:43:10;92002.66;;;12.22;93.29
5952;BME280;3001;42.622;23.194;2022-10-30T03:45:36;92003.03;;;12.29;92.90
5952;BME280;3001;42.622;23.194;2022-10-30T03:48:05;91996.78;;;12.16;94.02
5952;BME280;3001;42.622;23.194;2022-10-30T03:50:32;92001.50;;;12.28;93.32
5952;BME280;3001;42.622;23.194;2022-10-30T03:52:59;92008.25;;;12.29;92.81
5952;BME280;3001;42.622;23.194;2022-10-30T03:55:27;92002.44;;;12.32;91.02
5952;BME280;3001;42.622;23.194;2022-10-30T03:57:54;92001.38;;;12.33;90.91
5952;BME280;3001;42.622;23.194;2022-10-30T04:00:21;92002.53;;;12.40;90.78
5952;BME280;3001;42.622;23.194;2022-10-30T04:02:49;91999.94;;;12.27;91.27
5952;BME280;3001;42.622;23.194;2022-10-30T04:05:19;91997.06;;;12.64;88.52
5952;BME280;3001;42.622;23.194;2022-10-30T04:07:47;91998.25;;;12.44;88.73
5952;BME280;3001;42.622;23.194;2022-10-30T04:10:14;91993.09;;;12.31;89.57
5952;BME280;3001;42.622;23.194;2022-10-30T04:12:41;91988.19;;;12.29;89.98
5952;BME280;3001;42.622;23.194;2022-10-30T04:15:08;91991.25;;;12.31;90.24
5952;BME280;3001;42.622;23.194;2022-10-30T04:17:34;91979.66;;;12.37;90.11
5952;BME280;3001;42.622;23.194;2022-10-30T04:20:01;91980.75;;;12.80;88.24
5952;BME280;3001;42.622;23.194;2022-10-30T04:22:29;91982.38;;;12.32;90.22
5952;BME280;3001;42.622;23.194;2022-10-30T04:24:56;91982.59;;;12.36;90.86
5952;BME280;3001;42.622;23.194;2022-10-30T04:27:23;91985.53;;;12.43;90.61
5952;BME280;3001;42.622;23.194;2022-10-30T04:29:49;91982.34;;;12.46;90.40
5952;BME280;3001;42.622;23.194;2022-10-30T04:32:17;91983.88;;;12.47;90.59
5952;BME280;3001;42.622;23.194;2022-10-30T04:34:43;91988.94;;;12.30;90.82
5952;BME280;3001;42.622;23.194;2022-10-30T04:37:10;91986.53;;;12.33;90.94
5952;BME280;3001;42.622;23.194;2022-10-30T04:39:38;91980.13;;;12.39;90.62
5952;BME280;3001;42.622;23.194;2022-10-30T04:42:05;91979.22;;;12.57;89.23
5952;BME280;3001;42.622;23.194;2022-10-30T04:44:32;91979.63;;;12.51;89.81
5952;BME280;3001;42.622;23.194;2022-10-30T04:46:58;91972.91;;;12.36;90.27
5952;BME280;3001;42.622;23.194;2022-10-30T04:49:25;91979.47;;;12.69;89.66
5952;BME280;3001;42.622;23.194;2022-10-30T04:51:52;91983.84;;;12.82;88.70
5952;BME280;3001;42.622;23.194;2022-10-30T04:54:19;91985.31;;;12.75;89.02
5952;BME280;3001;42.622;23.194;2022-10-30T04:56:47;91981.56;;;12.81;88.41
5952;BME280;3001;42.622;23.194;2022-10-30T04:59:14;91977.28;;;12.85;88.02
5952;BME280;3001;42.622;23.194;2022-10-30T05:01:41;91977.72;;;13.00;87.29
5952;BME280;3001;42.622;23.194;2022-10-30T05:04:08;91981.69;;;12.98;87.60
5952;BME280;3001;42.622;23.194;2022-10-30T05:06:34;91987.97;;;12.97;87.40
5952;BME280;3001;42.622;23.194;2022-10-30T05:09:01;91993.06;;;13.02;85.40
5952;BME280;3001;42.622;23.194;2022-10-30T05:11:28;91998.72;;;12.82;86.58
5952;BME280;3001;42.622;23.194;2022-10-30T05:13:56;91995.41;;;12.90;85.63
5952;BME280;3001;42.622;23.194;2022-10-30T05:16:23;91994.34;;;12.91;85.05
5952;BME280;3001;42.622;23.194;2022-10-30T05:18:50;91996.44;;;13.02;84.82
5952;BME280;3001;42.622;23.194;2022-10-30T05:21:16;91999.78;;;12.94;85.33
5952;BME280;3001;42.622;23.194;2022-10-30T05:23:43;92000.28;;;12.83;85.74
5952;BME280;3001;42.622;23.194;2022-10-30T05:26:10;92007.13;;;12.92;84.93
5952;BME280;3001;42.622;23.194;2022-10-30T05:28:37;92005.81;;;13.03;83.35
5952;BME280;3001;42.622;23.194;2022-10-30T05:31:05;92008.34;;;12.95;82.99
5952;BME280;3001;42.622;23.194;2022-10-30T05:33:32;92010.97;;;12.95;83.41
5952;BME280;3001;42.622;23.194;2022-10-30T05:35:59;92016.78;;;12.78;83.74
5952;BME280;3001;42.622;23.194;2022-10-30T05:38:25;92012.09;;;13.02;83.05
5952;BME280;3001;42.622;23.194;2022-10-30T05:40:52;92012.56;;;12.69;84.51
5952;BME280;3001;42.622;23.194;2022-10-30T05:43:19;92022.09;;;13.31;83.35
5952;BME280;3001;42.622;23.194;2022-10-30T05:45:47;92019.06;;;13.37;82.85
5952;BME280;3001;42.622;23.194;2022-10-30T05:48:16;92023.06;;;13.43;81.37
5952;BME280;3001;42.622;23.194;2022-10-30T05:50:42;92020.25;;;13.31;79.68
5952;BME280;3001;42.622;23.194;2022-10-30T06:09:42;92014.84;;;12.84;83.97
5952;BME280;3001;42.622;23.194;2022-10-30T06:12:09;92002.34;;;12.72;85.24
5952;BME280;3001;42.622;23.194;2022-10-30T06:14:35;92012.38;;;12.65;85.20
5952;BME280;3001;42.622;23.194;2022-10-30T06:17:02;92009.44;;;12.58;85.72
5952;BME280;3001;42.622;23.194;2022-10-30T06:19:29;92016.50;;;12.58;86.17
5952;BME280;3001;42.622;23.194;2022-10-30T06:21:56;92016.19;;;12.59;86.51
5952;BME280;3001;42.622;23.194;2022-10-30T06:24:22;92015.56;;;12.40;86.64
5952;BME280;3001;42.622;23.194;2022-10-30T06:26:50;92015.06;;;12.38;86.36
5952;BME280;3001;42.622;23.194;2022-10-30T06:29:17;92015.09;;;12.25;85.09
5952;BME280;3001;42.622;23.194;2022-10-30T06:31:44;92007.19;;;12.30;84.73
5952;BME280;3001;42.622;23.194;2022-10-30T06:34:11;92008.53;;;12.41;84.73
5952;BME280;3001;42.622;23.194;2022-10-30T06:36:37;92013.38;;;12.56;83.73
5952;BME280;3001;42.622;23.194;2022-10-30T06:39:04;92007.88;;;12.57;83.73
5952;BME280;3001;42.622;23.194;2022-10-30T06:41:31;92011.97;;;12.50;83.08
5952;BME280;3001;42.622;23.194;2022-10-30T06:43:59;92017.28;;;12.45;82.61
5952;BME280;3001;42.622;23.194;2022-10-30T06:46:26;92015.56;;;12.40;83.91
5952;BME280;3001;42.622;23.194;2022-10-30T06:48:53;92010.34;;;12.40;83.90
5952;BME280;3001;42.622;23.194;2022-10-30T06:51:20;92013.44;;;12.29;84.73
5952;BME280;3001;42.622;23.194;2022-10-30T06:53:46;92009.63;;;12.26;85.01
5952;BME280;3001;42.622;23.194;2022-10-30T06:56:13;92020.38;;;12.47;85.17
5952;BME280;3001;42.622;23.194;2022-10-30T06:58:40;92024.03;;;12.46;85.29
5952;BME280;3001;42.622;23.194;2022-10-30T07:01:08;92023.72;;;12.61;85.20
5952;BME280;3001;42.622;23.194;2022-10-30T07:03:35;92031.63;;;12.69;84.59
5952;BME280;3001;42.622;23.194;2022-10-30T07:06:02;92028.53;;;12.67;85.07
5952;BME280;3001;42.622;23.194;2022-10-30T07:08:29;92028.63;;;12.62;85.93
5952;BME280;3001;42.622;23.194;2022-10-30T07:10:56;92017.03;;;12.68;86.11
5952;BME280;3001;42.622;23.194;2022-10-30T07:13:24;92013.91;;;12.80;86.04
5952;BME280;3001;42.622;23.194;2022-10-30T07:15:50;92017.56;;;12.92;86.56
5952;BME280;3001;42.622;23.194;2022-10-30T07:18:18;92017.00;;;13.04;86.66
5952;BME280;3001;42.622;23.194;2022-10-30T07:20:45;92021.03;;;13.10;86.46
5952;BME280;3001;42.622;23.194;2022-10-30T07:23:12;92022.63;;;13.19;86.05
5952;BME280;3001;42.622;23.194;2022-10-30T07:25:38;92015.94;;;13.27;85.78
5952;BME280;3001;42.622;23.194;2022-10-30T07:28:05;92006.69;;;13.21;86.06
5952;BME280;3001;42.622;23.194;2022-10-30T07:30:32;92013.13;;;13.23;86.74
5952;BME280;3001;42.622;23.194;2022-10-30T07:33:00;92009.41;;;13.38;86.35
5952;BME280;3001;42.622;23.194;2022-10-30T07:35:29;92012.03;;;13.46;86.48
5952;BME280;3001;42.622;23.194;2022-10-30T07:38:00;92007.19;;;13.53;86.51
5952;BME280;3001;42.622;23.194;2022-10-30T07:40:27;91999.81;;;13.55;86.66
5952;BME280;3001;42.622;23.194;2022-10-30T07:42:58;92004.78;;;13.74;85.74
5952;BME280;3001;42.622;23.194;2022-10-30T07:45:25;92005.31;;;13.92;85.77
5952;BME280;3001;42.622;23.194;2022-10-30T07:47:52;92004.41;;;13.88;85.84
5952;BME280;3001;42.622;23.194;2022-10-30T07:50:19;92008.84;;;13.88;86.04
5952;BME280;3001;42.622;23.194;2022-10-30T07:52:48;92003.66;;;13.96;86.06
5952;BME280;3001;42.622;23.194;2022-10-30T07:55:14;92008.44;;;14.03;85.89
5952;BME280;3001;42.622;23.194;2022-10-30T07:57:41;92005.53;;;14.04;85.93
5952;BME280;3001;42.622;23.194;2022-10-30T08:00:10;92001.31;;;14.25;85.29
5952;BME280;3001;42.622;23.194;2022-10-30T08:02:37;92000.88;;;14.32;85.25
5952;BME280;3001;42.622;23.194;2022-10-30T08:05:05;91997.66;;;14.43;84.91
5952;BME280;3001;42.622;23.194;2022-10-30T08:07:34;91994.44;;;14.55;84.51
5952;BME280;3001;42.622;23.194;2022-10-30T08:10:05;91992.75;;;14.67;84.29
5952;BME280;3001;42.622;23.194;2022-10-30T08:12:33;91986.28;;;14.73;84.62
5952;BME280;3001;42.622;23.194;2022-10-30T08:15:00;91981.22;;;14.85;83.78
5952;BME280;3001;42.622;23.194;2022-10-30T08:17:27;91983.19;;;14.97;82.66
5952;BME280;3001;42.622;23.194;2022-10-30T08:19:54;91975.44;;;15.26;81.54
5952;BME280;3001;42.622;23.194;2022-10-30T08:22:21;91977.78;;;15.27;81.40
5952;BME280;3001;42.622;23.194;2022-10-30T08:24:48;91976.31;;;15.55;80.64
5952;BME280;3001;42.622;23.194;2022-10-30T08:27:16;91978.34;;;15.50;80.13
5952;BME280;3001;42.622;23.194;2022-10-30T08:29:43;91988.78;;;15.58;80.16
5952;BME280;3001;42.622;23.194;2022-10-30T08:32:10;91989.78;;;15.82;78.94
5952;BME280;3001;42.622;23.194;2022-10-30T08:34:36;91988.44;;;15.76;80.03
5952;BME280;3001;42.622;23.194;2022-10-30T08:37:03;91987.78;;;15.88;79.55
5952;BME280;3001;42.622;23.194;2022-10-30T08:39:32;91990.28;;;16.13;79.50
5952;BME280;3001;42.622;23.194;2022-10-30T08:41:59;91989.06;;;16.40;76.56
5952;BME280;3001;42.622;23.194;2022-10-30T08:44:27;91991.31;;;16.70;75.76
5952;BME280;3001;42.622;23.194;2022-10-30T08:46:53;91996.00;;;16.85;75.40
5952;BME280;3001;42.622;23.194;2022-10-30T08:49:20;91990.75;;;17.06;73.47
5952;BME280;3001;42.622;23.194;2022-10-30T08:51:47;91999.69;;;17.25;74.22
5952;BME280;3001;42.622;23.194;2022-10-30T08:54:13;91997.25;;;17.41;73.77
5952;BME280;3001;42.622;23.194;2022-10-30T08:56:40;91996.34;;;17.69;72.94
5952;BME280;3001;42.622;23.194;2022-10-30T08:59:07;91994.84;;;17.92;72.57
5952;BME280;3001;42.622;23.194;2022-10-30T09:01:35;91983.47;;;18.00;72.54
5952;BME280;3001;42.622;23.194;2022-10-30T09:04:02;91977.66;;;18.18;70.88
5952;BME280;3001;42.622;23.194;2022-10-30T09:06:29;91982.84;;;18.27;70.35
5952;BME280;3001;42.622;23.194;2022-10-30T09:08:56;91985.25;;;18.44;70.30
5952;BME280;3001;42.622;23.194;2022-10-30T09:11:22;91978.41;;;18.55;69.88
5952;BME280;3001;42.622;23.194;2022-10-30T09:13:49;91976.66;;;18.71;68.82
5952;BME280;3001;42.622;23.194;2022-10-30T09:16:16;91976.84;;;18.78;68.03
5952;BME280;3001;42.622;23.194;2022-10-30T09:18:44;91974.88;;;19.14;68.07
5952;BME280;3001;42.622;23.194;2022-10-30T09:21:11;91975.09;;;19.21;66.55
5952;BME280;3001;42.622;23.194;2022-10-30T09:23:37;91972.69;;;19.43;66.80
5952;BME280;3001;42.622;23.194;2022-10-30T09:26:04;91975.75;;;19.45;64.67
5952;BME280;3001;42.622;23.194;2022-10-30T09:28:31;91971.72;;;19.63;65.92
5952;BME280;3001;42.622;23.194;2022-10-30T09:31:00;91976.31;;;19.82;63.41
5952;BME280;3001;42.622;23.194;2022-10-30T09:33:29;91970.88;;;19.90;64.80
5952;BME280;3001;42.622;23.194;2022-10-30T09:35:57;91968.25;;;20.21;64.66
5952;BME280;3001;42.622;23.194;2022-10-30T09:38:27;91972.00;;;20.36;65.81
5952;BME280;3001;42.622;23.194;2022-10-30T09:41:11;91975.13;;;20.41;63.72
5952;BME280;3001;42.622;23.194;2022-10-30T09:43:55;91969.03;;;20.72;65.92
5952;BME280;3001;42.622;23.194;2022-10-30T09:46:37;91970.97;;;20.90;62.64
5952;BME280;3001;42.622;23.194;2022-10-30T09:52:05;91971.13;;;20.97;56.34
5952;BME280;3001;42.622;23.194;2022-10-30T09:54:42;91972.56;;;21.13;60.33
5952;BME280;3001;42.622;23.194;2022-10-30T09:57:18;91970.44;;;21.38;57.30
5952;BME280;3001;42.622;23.194;2022-10-30T09:59:58;91960.13;;;21.52;54.90
5952;BME280;3001;42.622;23.194;2022-10-30T10:02:33;91962.63;;;21.64;56.18
5952;BME280;3001;42.622;23.194;2022-10-30T10:05:05;91956.06;;;21.77;55.13
5952;BME280;3001;42.622;23.194;2022-10-30T10:07:41;91946.84;;;21.90;52.07
5952;BME280;3001;42.622;23.194;2022-10-30T10:10:14;91949.94;;;21.95;53.81
5952;BME280;3001;42.622;23.194;2022-10-30T10:12:44;91946.09;;;22.12;52.08
5952;BME280;3001;42.622;23.194;2022-10-30T10:15:17;91948.34;;;22.13;48.53
5952;BME280;3001;42.622;23.194;2022-10-30T10:17:45;91943.34;;;22.31;51.06
5952;BME280;3001;42.622;23.194;2022-10-30T10:20:16;91944.31;;;22.42;51.43
5952;BME280;3001;42.622;23.194;2022-10-30T10:22:48;91939.56;;;22.54;50.83
5952;BME280;3001;42.622;23.194;2022-10-30T10:25:17;91938.59;;;22.66;49.24
5952;BME280;3001;42.622;23.194;2022-10-30T10:27:55;91934.97;;;22.77;49.13
5952;BME280;3001;42.622;23.194;2022-10-30T10:30:29;91925.69;;;22.90;50.25
5952;BME280;3001;42.622;23.194;2022-10-30T10:33:22;91929.31;;;23.08;49.43
5952;BME280;3001;42.622;23.194;2022-10-30T10:36:08;91916.06;;;23.08;46.25
5952;BME280;3001;42.622;23.194;2022-10-30T10:38:49;91916.53;;;23.13;49.57
5952;BME280;3001;42.622;23.194;2022-10-30T10:41:29;91922.69;;;23.21;46.52
5952;BME280;3001;42.622;23.194;2022-10-30T10:44:15;91912.88;;;23.25;45.17
5952;BME280;3001;42.622;23.194;2022-10-30T10:46:57;91914.19;;;23.41;44.42
5952;BME280;3001;42.622;23.194;2022-10-30T10:49:38;91914.75;;;23.57;45.02
5952;BME280;3001;42.622;23.194;2022-10-30T10:52:12;91913.38;;;23.70;45.34
5952;BME280;3001;42.622;23.194;2022-10-30T10:54:44;91914.13;;;23.71;44.47
5952;BME280;3001;42.622;23.194;2022-10-30T10:57:16;91918.81;;;23.84;44.91
5952;BME280;3001;42.622;23.194;2022-10-30T10:59:50;91905.34;;;24.00;44.87
5952;BME280;3001;42.622;23.194;2022-10-30T11:02:29;91912.56;;;24.06;43.43
5952;BME280;3001;42.622;23.194;2022-10-30T11:05:03;91911.94;;;24.23;44.21
5952;BME280;3001;42.622;23.194;2022-10-30T11:07:34;91909.25;;;24.16;42.62
5952;BME280;3001;42.622;23.194;2022-10-30T11:10:12;91899.47;;;24.27;42.81
5952;BME280;3001;42.622;23.194;2022-10-30T11:12:39;91891.97;;;24.40;43.82
5952;BME280;3001;42.622;23.194;2022-10-30T11:17:58;91903.53;;;24.61;41.75
5952;BME280;3001;42.622;23.194;2022-10-30T11:20:37;91891.41;;;24.64;43.03
5952;BME280;3001;42.622;23.194;2022-10-30T11:23:30;91898.00;;;24.90;42.55
5952;BME280;3001;42.622;23.194;2022-10-30T11:25:59;91884.69;;;24.83;40.44
5952;BME280;3001;42.622;23.194;2022-10-30T11:28:34;91885.13;;;24.96;40.37
5952;BME280;3001;42.622;23.194;2022-10-30T11:31:21;91881.75;;;25.09;40.34
5952;BME280;3001;42.622;23.194;2022-10-30T11:33:49;91877.56;;;25.08;40.22
5952;BME280;3001;42.622;23.194;2022-10-30T11:36:18;91870.69;;;25.04;40.12
5952;BME280;3001;42.622;23.194;2022-10-30T11:38:47;91876.81;;;25.11;40.40
5952;BME280;3001;42.622;23.194;2022-10-30T11:41:16;91873.75;;;25.06;40.38
5952;BME280;3001;42.622;23.194;2022-10-30T11:43:43;91872.34;;;25.29;37.77
5952;BME280;3001;42.622;23.194;2022-10-30T11:46:19;91872.75;;;25.38;37.72
5952;BME280;3001;42.622;23.194;2022-10-30T11:48:48;91864.81;;;25.45;38.93
5952;BME280;3001;42.622;23.194;2022-10-30T11:51:31;91871.25;;;25.44;38.11
5952;BME280;3001;42.622;23.194;2022-10-30T11:53:59;91862.16;;;25.59;39.39
5952;BME280;3001;42.622;23.194;2022-10-30T11:56:29;91861.78;;;25.71;38.06
5952;BME280;3001;42.622;23.194;2022-10-30T11:58:58;91854.59;;;25.79;38.03
5952;BME280;3001;42.622;23.194;2022-10-30T12:01:28;91862.97;;;25.88;36.94
5952;BME280;3001;42.622;23.194;2022-10-30T12:03:56;91861.03;;;25.74;37.76
5952;BME280;3001;42.622;23.194;2022-10-30T12:06:38;91859.56;;;25.87;36.52
5952;BME280;3001;42.622;23.194;2022-10-30T12:09:10;91859.91;;;25.79;36.42
5952;BME280;3001;42.622;23.194;2022-10-30T12:11:39;91858.44;;;25.88;37.21
5952;BME280;3001;42.622;23.194;2022-10-30T12:14:15;91854.25;;;25.94;36.13
5952;BME280;3001;42.622;23.194;2022-10-30T12:16:44;91857.66;;;25.88;37.14
5952;BME280;3001;42.622;23.194;2022-10-30T12:19:12;91859.16;;;25.82;37.11
5952;BME280;3001;42.622;23.194;2022-10-30T12:21:43;91864.09;;;25.80;36.53
5952;BME280;3001;42.622;23.194;2022-10-30T12:24:15;91853.06;;;25.74;37.24
5952;BME280;3001;42.622;23.194;2022-10-30T12:26:46;91853.09;;;25.95;36.41
5952;BME280;3001;42.622;23.194;2022-10-30T12:29:16;91849.69;;;25.95;36.89
5952;BME280;3001;42.622;23.194;2022-10-30T12:31:49;91854.22;;;25.91;37.30
5952;BME280;3001;42.622;23.194;2022-10-30T12:34:35;91850.38;;;25.81;37.69
5952;BME280;3001;42.622;23.194;2022-10-30T12:37:08;91863.34;;;25.76;37.84
5952;BME280;3001;42.622;23.194;2022-10-30T12:39:53;91857.25;;;25.79;38.63
5952;BME280;3001;42.622;23.194;2022-10-30T12:42:24;91850.00;;;25.69;38.38
5952;BME280;3001;42.622;23.194;2022-10-30T12:44:54;91850.75;;;25.66;38.89
5952;BME280;3001;42.622;23.194;2022-10-30T12:47:34;91847.72;;;25.74;38.00
5952;BME280;3001;42.622;23.194;2022-10-30T12:50:13;91847.34;;;25.76;38.09
5952;BME280;3001;42.622;23.194;2022-10-30T12:52:45;91856.84;;;25.66;38.66
5952;BME280;3001;42.622;23.194;2022-10-30T12:55:20;91848.09;;;25.62;37.88
5952;BME280;3001;42.622;23.194;2022-10-30T12:57:55;91847.34;;;25.65;39.69
5952;BME280;3001;42.622;23.194;2022-10-30T13:00:24;91851.91;;;25.72;39.49
5952;BME280;3001;42.622;23.194;2022-10-30T13:02:56;91849.22;;;25.72;38.16
5952;BME280;3001;42.622;23.194;2022-10-30T13:05:31;91836.31;;;25.77;36.80
5952;BME280;3001;42.622;23.194;2022-10-30T13:08:16;91841.25;;;25.82;38.56
5952;BME280;3001;42.622;23.194;2022-10-30T13:10:48;91838.63;;;25.86;39.13
5952;BME280;3001;42.622;23.194;2022-10-30T13:13:21;91832.53;;;25.82;38.67
5952;BME280;3001;42.622;23.194;2022-10-30T13:15:51;91828.34;;;25.81;38.38
5952;BME280;3001;42.622;23.194;2022-10-30T13:18:20;91831.38;;;25.69;37.42
5952;BME280;3001;42.622;23.194;2022-10-30T13:21:14;91830.25;;;25.73;37.13
5952;BME280;3001;42.622;23.194;2022-10-30T13:23:49;91830.25;;;25.77;37.33
5952;BME280;3001;42.622;23.194;2022-10-30T13:26:23;91831.38;;;25.83;36.97
5952;BME280;3001;42.622;23.194;2022-10-30T13:28:58;91823.78;;;25.78;36.48
5952;BME280;3001;42.622;23.194;2022-10-30T13:31:33;91832.56;;;25.96;35.75
5952;BME280;3001;42.622;23.194;2022-10-30T13:34:15;91829.50;;;26.08;37.19
5952;BME280;3001;42.622;23.194;2022-10-30T13:36:54;91820.00;;;26.07;37.12
5952;BME280;3001;42.622;23.194;2022-10-30T13:39:27;91826.88;;;25.94;36.21
5952;BME280;3001;42.622;23.194;2022-10-30T13:42:12;91828.00;;;25.89;38.17
5952;BME280;3001;42.622;23.194;2022-10-30T13:44:53;91825.31;;;25.86;37.89
5952;BME280;3001;42.622;23.194;2022-10-30T13:47:31;91816.53;;;25.78;38.42